Terminal Aerodrome Forecast
Issued by NWS Pendleton, OR

Home | Current Version | Previous Version | Text Only | Print | Product List | Glossary On
Versions: 1 2 3 4 5 6 7 8 9 10 11 12 13
186
FTUS46 KPDT 232320
TAFPDT
TAF
KPDT 232320Z 2400/2424 36008KT P6SM FEW060
     FM240500 10006KT P6SM SKC
     FM241200 18006KT P6SM SCT090
     FM241800 31005KT P6SM FEW090
     FM242100 34010G18KT P6SM FEW090=

USA.gov is the U.S. government's official web portal to all federal, state and local government web resources and services.